createdAt,value
2019-01-13T00:01:19.248Z,2.40
2019-01-13T00:03:47.433Z,2.50
2019-01-13T00:06:15.544Z,2.07
2019-01-13T00:08:45.694Z,2.20
2019-01-13T00:11:13.864Z,2.20
2019-01-13T00:13:42.080Z,2.33
2019-01-13T00:16:10.212Z,2.37
2019-01-13T00:18:38.702Z,2.63
2019-01-13T00:21:06.830Z,2.63
2019-01-13T00:23:39.006Z,2.43
2019-01-13T00:26:07.231Z,2.37
2019-01-13T00:28:35.393Z,2.40
2019-01-13T00:31:03.566Z,2.50
2019-01-13T00:33:32.760Z,2.50
2019-01-13T00:36:05.086Z,2.60
2019-01-13T00:38:33.320Z,2.80
2019-01-13T00:41:01.820Z,2.50
2019-01-13T00:43:30.304Z,2.50
2019-01-13T00:45:59.865Z,2.60
2019-01-13T00:48:28.059Z,2.37
2019-01-13T00:50:56.604Z,2.37
2019-01-13T00:53:24.792Z,2.20
2019-01-13T00:55:53.013Z,2.40
2019-01-13T00:58:21.178Z,2.07
2019-01-13T01:00:49.320Z,2.30
2019-01-13T01:03:17.513Z,2.20
2019-01-13T01:05:45.928Z,1.90
2019-01-13T01:08:14.962Z,1.80
2019-01-13T01:10:43.486Z,2.33
2019-01-13T01:13:11.618Z,2.07
2019-01-13T01:15:39.805Z,2.03
2019-01-13T01:18:07.948Z,1.67
2019-01-13T01:20:37.183Z,2.00
2019-01-13T01:23:05.368Z,1.47
2019-01-13T01:25:33.500Z,1.50
2019-01-13T01:28:01.722Z,1.80
2019-01-13T01:30:33.553Z,1.90
2019-01-13T01:32:58.032Z,1.80
2019-01-13T01:35:26.219Z,1.73
2019-01-13T01:37:54.640Z,2.10
2019-01-13T01:40:23.469Z,2.17
2019-01-13T01:42:51.637Z,2.37
2019-01-13T01:45:20.731Z,2.07
2019-01-13T01:47:48.905Z,2.20
2019-01-13T01:50:18.110Z,2.13
2019-01-13T01:52:46.568Z,2.47
2019-01-13T01:55:16.690Z,2.43
2019-01-13T01:57:45.610Z,2.60
2019-01-13T02:00:18.753Z,2.70
2019-01-13T02:02:47.012Z,3.20
2019-01-13T02:05:15.145Z,3.20
2019-01-13T02:07:43.685Z,3.53
2019-01-13T02:10:16.823Z,3.47
2019-01-13T02:12:44.997Z,3.83
2019-01-13T02:15:17.642Z,4.03
2019-01-13T02:17:46.106Z,4.07
2019-01-13T02:20:15.450Z,4.20
2019-01-13T02:22:43.623Z,4.87
2019-01-13T02:25:13.088Z,4.53
2019-01-13T02:27:41.363Z,4.73
2019-01-13T02:30:13.119Z,4.67
2019-01-13T02:32:41.408Z,4.20
2019-01-13T02:35:09.649Z,5.07
2019-01-13T02:37:37.890Z,4.30
2019-01-13T02:40:06.758Z,4.90
2019-01-13T02:42:34.978Z,4.80
2019-01-13T02:45:03.798Z,4.60
2019-01-13T02:47:32.014Z,4.30
2019-01-13T02:50:00.285Z,4.37
2019-01-13T02:52:28.663Z,4.50
2019-01-13T02:54:56.830Z,4.87
2019-01-13T02:57:25.001Z,5.00
2019-01-13T02:59:53.157Z,4.40
2019-01-13T03:02:21.281Z,4.20
2019-01-13T03:04:49.444Z,3.93
2019-01-13T03:07:18.009Z,4.60
2019-01-13T03:09:46.181Z,4.80
2019-01-13T03:12:15.430Z,4.20
2019-01-13T03:14:43.519Z,4.33
2019-01-13T03:17:13.044Z,4.10
2019-01-13T03:19:41.320Z,4.30
2019-01-13T03:22:09.519Z,4.17
2019-01-13T03:24:37.679Z,4.10
2019-01-13T03:27:06.154Z,3.53
2019-01-13T03:29:34.609Z,3.80
2019-01-13T03:32:02.802Z,3.40
2019-01-13T03:34:31.235Z,3.50
2019-01-13T03:36:59.349Z,3.50
2019-01-13T03:39:27.771Z,3.10
2019-01-13T03:41:55.920Z,3.43
2019-01-13T03:44:24.094Z,3.37
2019-01-13T03:46:53.254Z,3.77
2019-01-13T03:49:21.809Z,3.93
2019-01-13T03:51:49.948Z,4.20
2019-01-13T03:54:18.158Z,4.10
2019-01-13T03:56:46.665Z,4.47
2019-01-13T03:59:14.888Z,4.40
2019-01-13T04:01:43.029Z,4.30
2019-01-13T04:04:11.364Z,4.20
2019-01-13T04:06:39.493Z,4.50
2019-01-13T04:09:08.532Z,4.40
2019-01-13T04:11:36.756Z,5.20
2019-01-13T04:14:05.175Z,5.17
2019-01-13T04:16:37.470Z,4.73
2019-01-13T04:19:05.749Z,5.03
2019-01-13T04:21:34.023Z,5.30
2019-01-13T04:24:02.244Z,4.93
2019-01-13T04:26:30.620Z,6.00
2019-01-13T04:28:58.787Z,5.63
2019-01-13T04:31:27.245Z,5.47
2019-01-13T04:33:55.811Z,5.53
2019-01-13T04:36:24.014Z,5.73
2019-01-13T04:38:52.196Z,6.33
2019-01-13T04:41:20.758Z,6.00
2019-01-13T04:43:48.951Z,5.93
2019-01-13T04:46:17.201Z,6.40
2019-01-13T04:48:45.290Z,6.57
2019-01-13T04:51:13.507Z,6.90
2019-01-13T04:53:41.651Z,6.23
2019-01-13T04:56:10.144Z,5.80
2019-01-13T04:58:38.292Z,6.23
2019-01-13T05:01:07.774Z,6.43
2019-01-13T05:03:35.979Z,6.00
2019-01-13T05:06:04.443Z,6.00
2019-01-13T05:08:34.268Z,5.90
2019-01-13T05:11:03.061Z,5.57
2019-01-13T05:13:31.209Z,5.80
2019-01-13T05:15:59.691Z,6.37
2019-01-13T05:18:27.855Z,6.23
2019-01-13T05:20:56.447Z,6.00
2019-01-13T05:23:24.638Z,6.40
2019-01-13T05:26:12.178Z,6.30
2019-01-13T05:28:40.339Z,6.20
2019-01-13T05:31:14.497Z,6.17
2019-01-13T05:33:42.899Z,6.70
2019-01-13T05:36:11.093Z,6.73
2019-01-13T05:38:39.249Z,6.63
2019-01-13T05:41:07.436Z,8.03
2019-01-13T05:43:35.829Z,6.20
2019-01-13T05:46:04.277Z,6.33
2019-01-13T05:48:32.506Z,6.93
2019-01-13T05:51:00.640Z,6.50
2019-01-13T05:53:33.194Z,7.50
2019-01-13T05:56:01.420Z,6.40
2019-01-13T05:58:30.622Z,6.93
2019-01-13T06:00:58.777Z,7.13
2019-01-13T06:03:27.368Z,7.57
2019-01-13T06:05:55.551Z,8.90
2019-01-13T06:08:23.709Z,8.53
2019-01-13T06:11:11.508Z,8.00
2019-01-13T06:13:39.722Z,7.43
2019-01-13T06:16:07.908Z,8.83
2019-01-13T06:18:36.115Z,7.97
2019-01-13T06:21:04.751Z,9.43
2019-01-13T06:23:32.996Z,8.90
2019-01-13T06:26:01.080Z,8.90
2019-01-13T06:28:29.669Z,8.97
2019-01-13T06:30:57.863Z,7.83
2019-01-13T06:33:26.026Z,7.70
2019-01-13T06:35:56.550Z,8.83
2019-01-13T06:38:24.731Z,7.80
2019-01-13T06:40:52.904Z,8.90
2019-01-13T06:43:21.467Z,8.60
2019-01-13T06:45:52.034Z,8.23
2019-01-13T06:48:26.276Z,7.17
2019-01-13T06:50:54.463Z,8.30
2019-01-13T06:53:23.597Z,8.33
2019-01-13T06:55:51.775Z,8.37
2019-01-13T06:58:19.969Z,7.40
2019-01-13T07:00:48.521Z,6.87
2019-01-13T07:03:16.669Z,7.67
2019-01-13T07:05:44.880Z,7.00
2019-01-13T07:08:14.365Z,7.10
2019-01-13T07:10:43.255Z,7.40
2019-01-13T07:13:11.257Z,6.77
2019-01-13T07:15:39.414Z,7.97
2019-01-13T07:18:07.897Z,7.60
2019-01-13T07:20:36.343Z,7.77
2019-01-13T07:23:04.669Z,7.87
2019-01-13T07:25:33.297Z,8.37
2019-01-13T07:28:01.478Z,8.70
2019-01-13T07:30:29.674Z,8.50
2019-01-13T07:32:59.780Z,7.77
2019-01-13T07:35:27.991Z,8.20
2019-01-13T07:37:56.515Z,8.13
2019-01-13T07:40:24.752Z,9.87
2019-01-13T07:42:54.043Z,9.83
2019-01-13T07:45:26.714Z,10.80
2019-01-13T07:47:54.875Z,10.67
2019-01-13T07:50:23.049Z,9.60
2019-01-13T07:52:51.215Z,8.90
2019-01-13T07:55:20.806Z,9.33
2019-01-13T07:57:49.002Z,9.73
2019-01-13T08:00:22.609Z,9.83
2019-01-13T08:02:55.002Z,10.20
2019-01-13T08:05:24.408Z,10.80
2019-01-13T08:07:52.539Z,10.77
2019-01-13T08:10:22.641Z,9.97
2019-01-13T08:12:50.845Z,11.03
2019-01-13T08:15:19.815Z,10.30
2019-01-13T08:17:48.319Z,11.12
2019-01-13T08:20:19.904Z,10.20
2019-01-13T08:22:48.052Z,10.03
2019-01-13T08:25:17.484Z,10.50
2019-01-13T08:27:45.621Z,10.23
2019-01-13T08:30:21.791Z,9.87
2019-01-13T08:32:49.959Z,10.37
2019-01-13T08:35:18.513Z,10.03
2019-01-13T08:37:46.733Z,9.60
2019-01-13T08:40:16.815Z,10.40
2019-01-13T08:42:49.381Z,9.80
2019-01-13T08:45:18.104Z,8.93
2019-01-13T08:47:46.547Z,9.57
2019-01-13T08:50:24.571Z,8.60
2019-01-13T08:52:53.031Z,9.00
2019-01-13T08:55:22.871Z,8.87
2019-01-13T08:57:51.046Z,9.80
2019-01-13T09:00:21.747Z,9.90
2019-01-13T09:02:49.970Z,10.13
2019-01-13T09:05:18.493Z,10.17
2019-01-13T09:07:47.190Z,9.13
2019-01-13T09:10:16.285Z,9.73
2019-01-13T09:12:44.484Z,7.97
2019-01-13T09:15:17.947Z,8.40
2019-01-13T09:17:46.528Z,8.97
2019-01-13T09:20:17.576Z,7.83
2019-01-13T09:22:45.764Z,7.27
2019-01-13T09:25:13.952Z,7.57
2019-01-13T09:27:42.122Z,7.07
2019-01-13T09:30:13.675Z,6.63
2019-01-13T09:32:41.826Z,7.10
2019-01-13T09:35:10.274Z,7.00
2019-01-13T09:37:38.900Z,7.00
2019-01-13T09:40:07.985Z,6.20
2019-01-13T09:42:36.184Z,7.00
2019-01-13T09:45:06.211Z,6.50
2019-01-13T09:47:34.358Z,7.30
2019-01-13T09:50:02.544Z,6.67
2019-01-13T09:52:32.662Z,7.50
2019-01-13T09:55:00.836Z,6.37
2019-01-13T09:57:28.998Z,5.90
2019-01-13T09:59:57.482Z,5.33
2019-01-13T10:02:25.679Z,4.70
2019-01-13T10:04:53.841Z,4.72
2019-01-13T10:07:21.998Z,4.50
2019-01-13T10:09:50.159Z,4.23
2019-01-13T10:12:18.359Z,4.00
2019-01-13T10:14:46.778Z,3.30
2019-01-13T10:17:14.902Z,3.27
2019-01-13T10:19:43.091Z,3.37
2019-01-13T10:22:11.258Z,3.10
2019-01-13T10:24:39.805Z,2.93
2019-01-13T10:27:12.403Z,2.57
2019-01-13T10:29:40.571Z,2.33
2019-01-13T10:32:09.151Z,2.33
2019-01-13T10:34:37.603Z,2.10
2019-01-13T10:37:06.994Z,1.97
2019-01-13T10:39:35.501Z,1.60
2019-01-13T10:42:03.710Z,2.00
2019-01-13T10:44:32.894Z,1.57
2019-01-13T10:47:01.447Z,1.40
2019-01-13T10:49:29.818Z,1.60
2019-01-13T10:51:57.944Z,1.33
2019-01-13T10:54:26.077Z,1.37
2019-01-13T10:56:54.255Z,0.83
2019-01-13T10:59:22.688Z,1.40
2019-01-13T11:01:50.813Z,0.93
2019-01-13T11:04:18.986Z,1.13
2019-01-13T11:06:49.155Z,0.70
2019-01-13T11:09:17.640Z,0.70
2019-01-13T11:11:46.078Z,0.87
2019-01-13T11:14:14.251Z,0.53
2019-01-13T11:16:42.710Z,0.70
2019-01-13T11:19:10.836Z,1.10
2019-01-13T11:21:39.215Z,0.90
2019-01-13T11:24:07.379Z,1.13
2019-01-13T11:26:36.575Z,0.53
2019-01-13T11:29:04.736Z,0.70
2019-01-13T11:31:33.195Z,0.80
2019-01-13T11:34:01.392Z,0.57
2019-01-13T11:36:29.571Z,1.03
2019-01-13T11:38:57.737Z,1.00
2019-01-13T11:41:28.961Z,0.50
2019-01-13T11:44:01.026Z,0.70
2019-01-13T11:46:28.915Z,1.27
2019-01-13T11:48:57.053Z,1.70
2019-01-13T11:51:25.725Z,4.10
2019-01-13T11:53:53.853Z,3.60
2019-01-13T11:56:22.031Z,2.33
2019-01-13T11:58:50.591Z,2.47
2019-01-13T12:01:18.781Z,2.63
2019-01-13T12:03:47.710Z,1.43
2019-01-13T12:06:15.855Z,1.90
2019-01-13T12:08:45.041Z,2.13
2019-01-13T12:11:13.217Z,2.50
2019-01-13T12:13:41.435Z,1.77
2019-01-13T12:16:11.593Z,1.60
2019-01-13T12:18:40.858Z,3.00
2019-01-13T12:21:08.942Z,2.27
2019-01-13T12:23:37.079Z,2.00
2019-01-13T12:26:05.246Z,2.50
2019-01-13T12:28:33.368Z,2.13
2019-01-13T12:31:03.512Z,2.30
2019-01-13T12:33:32.697Z,2.17
2019-01-13T12:36:00.887Z,2.50
2019-01-13T12:38:29.020Z,2.30
2019-01-13T12:40:57.247Z,2.60
2019-01-13T12:43:25.395Z,2.77
2019-01-13T12:45:53.575Z,3.80
2019-01-13T12:48:22.774Z,2.40
2019-01-13T12:50:50.889Z,2.97
2019-01-13T12:53:20.059Z,3.17
2019-01-13T12:55:48.815Z,3.20
2019-01-13T12:58:18.028Z,3.10
2019-01-13T13:00:46.164Z,2.23
2019-01-13T13:03:14.373Z,2.10
2019-01-13T13:05:43.583Z,2.10
2019-01-13T13:08:11.746Z,1.83
2019-01-13T13:10:51.733Z,1.37
2019-01-13T13:13:19.842Z,2.00
2019-01-13T13:15:48.033Z,2.30
2019-01-13T13:18:16.450Z,2.10
2019-01-13T13:20:44.988Z,2.93
2019-01-13T13:23:13.181Z,2.00
2019-01-13T13:25:43.796Z,3.23
2019-01-13T13:28:12.401Z,2.70
2019-01-13T13:30:40.549Z,2.60
2019-01-13T13:33:09.751Z,6.30
2019-01-13T13:35:39.933Z,7.00
2019-01-13T13:38:06.313Z,3.77
2019-01-13T13:40:34.894Z,1.87
2019-01-13T13:43:03.430Z,2.10
2019-01-13T13:45:31.971Z,2.87
2019-01-13T13:48:00.353Z,3.43
2019-01-13T13:50:28.525Z,2.80
2019-01-13T13:52:56.725Z,3.00
2019-01-13T13:55:24.867Z,2.67
2019-01-13T13:57:53.559Z,2.80
2019-01-13T14:00:32.669Z,3.00
2019-01-13T14:03:00.859Z,5.73
2019-01-13T14:05:29.020Z,6.27
2019-01-13T14:07:57.184Z,4.80
2019-01-13T14:10:30.899Z,6.30
2019-01-13T14:12:59.282Z,2.90
2019-01-13T14:15:28.513Z,2.70
2019-01-13T14:17:56.647Z,3.83
2019-01-13T14:20:24.866Z,2.80
2019-01-13T14:22:53.269Z,2.90
2019-01-13T14:25:21.485Z,2.40
2019-01-13T14:27:51.560Z,2.90
2019-01-13T14:30:22.839Z,3.03
2019-01-13T14:32:50.977Z,2.60
2019-01-13T14:35:19.211Z,2.77
2019-01-13T14:37:47.367Z,2.80
2019-01-13T14:40:20.498Z,1.20
2019-01-13T14:42:48.808Z,1.30
2019-01-13T14:45:20.163Z,1.23
2019-01-13T14:47:48.389Z,0.60
2019-01-13T14:50:18.790Z,0.80
2019-01-13T14:52:47.073Z,0.77
2019-01-13T14:55:15.582Z,1.00
2019-01-13T14:57:43.805Z,0.97
2019-01-13T15:00:15.483Z,0.60
2019-01-13T15:02:43.617Z,0.80
2019-01-13T15:05:12.525Z,0.73
2019-01-13T15:08:00.064Z,0.80
2019-01-13T15:10:28.327Z,0.67
2019-01-13T15:12:56.874Z,0.70
2019-01-13T15:15:25.079Z,0.80
2019-01-13T15:17:53.497Z,0.93
2019-01-13T15:20:23.006Z,0.93
2019-01-13T15:22:52.030Z,1.40
2019-01-13T15:25:26.692Z,1.20
2019-01-13T15:27:55.106Z,0.80
2019-01-13T15:30:26.713Z,1.40
2019-01-13T15:32:54.896Z,0.57
2019-01-13T15:35:23.435Z,0.50
2019-01-13T15:37:52.285Z,0.80
2019-01-13T15:40:20.432Z,0.80
2019-01-13T15:42:49.627Z,0.80
2019-01-13T15:45:17.798Z,0.73
2019-01-13T15:47:46.308Z,0.60
2019-01-13T15:50:16.989Z,0.70
2019-01-13T15:52:45.189Z,0.60
2019-01-13T15:55:13.374Z,0.70
2019-01-13T15:57:41.817Z,0.70
2019-01-13T16:00:18.718Z,0.85
2019-01-13T16:02:46.864Z,0.80
2019-01-13T16:05:15.990Z,0.60
2019-01-13T16:07:44.168Z,0.60
2019-01-13T16:10:14.656Z,0.70
2019-01-13T16:12:44.168Z,0.60
2019-01-13T16:15:12.640Z,0.90
2019-01-13T16:17:41.315Z,1.10
2019-01-13T16:20:15.174Z,1.10
2019-01-13T16:22:43.354Z,1.60
2019-01-13T16:25:11.739Z,2.03
2019-01-13T16:27:40.129Z,2.77
2019-01-13T16:30:12.273Z,1.77
2019-01-13T16:32:40.684Z,1.13
2019-01-13T16:35:08.825Z,1.50
2019-01-13T16:37:37.369Z,1.30
2019-01-13T16:40:08.511Z,1.10
2019-01-13T16:42:36.705Z,0.85
2019-01-13T16:45:06.183Z,0.70
2019-01-13T16:47:34.403Z,1.00
2019-01-13T16:50:02.912Z,1.10
2019-01-13T16:52:31.022Z,1.27
2019-01-13T16:54:59.220Z,0.77
2019-01-13T16:57:28.406Z,0.70
2019-01-13T16:59:57.167Z,0.90
2019-01-13T17:02:24.740Z,0.70
2019-01-13T17:04:53.846Z,0.83
2019-01-13T17:07:22.024Z,0.90
2019-01-13T17:09:50.203Z,0.93
2019-01-13T17:12:18.288Z,0.93
2019-01-13T17:14:46.451Z,1.30
2019-01-13T17:17:15.620Z,0.90
2019-01-13T17:19:43.821Z,0.70
2019-01-13T17:22:11.997Z,1.20
2019-01-13T17:24:40.156Z,0.83
2019-01-13T17:27:10.907Z,0.80
2019-01-13T17:29:40.089Z,0.80
2019-01-13T17:32:08.247Z,1.20
2019-01-13T17:34:36.413Z,2.20
2019-01-13T17:37:04.584Z,1.30
2019-01-13T17:39:33.269Z,1.30
2019-01-13T17:42:01.450Z,1.20
2019-01-13T17:44:30.139Z,1.40
2019-01-13T17:46:58.333Z,1.60
2019-01-13T17:49:26.803Z,1.50
2019-01-13T17:51:55.913Z,2.20
2019-01-13T17:54:24.996Z,1.03
2019-01-13T17:56:53.386Z,1.30
2019-01-13T17:59:21.545Z,1.20
2019-01-13T18:01:53.771Z,0.93
2019-01-13T18:04:21.887Z,1.03
2019-01-13T18:06:50.080Z,1.20
2019-01-13T18:09:18.246Z,1.40
2019-01-13T18:11:46.389Z,1.43
2019-01-13T18:14:14.579Z,1.43
2019-01-13T18:16:42.767Z,1.10
2019-01-13T18:19:10.907Z,1.10
2019-01-13T18:21:39.168Z,1.00
2019-01-13T18:24:07.298Z,1.00
2019-01-13T18:26:35.447Z,0.90
2019-01-13T18:29:03.600Z,1.20
2019-01-13T18:31:31.807Z,1.10
2019-01-13T18:34:00.000Z,1.10
2019-01-13T18:36:28.180Z,1.37
2019-01-13T18:38:56.319Z,1.00
2019-01-13T18:41:25.624Z,1.03
2019-01-13T18:43:54.106Z,1.53
2019-01-13T18:46:22.287Z,0.90
2019-01-13T18:48:50.445Z,2.70
2019-01-13T18:51:18.634Z,2.23
2019-01-13T18:53:47.818Z,1.90
2019-01-13T18:56:17.942Z,3.60
2019-01-13T18:58:46.424Z,1.37
2019-01-13T19:01:15.320Z,1.40
2019-01-13T19:03:44.518Z,1.17
2019-01-13T19:06:12.680Z,1.20
2019-01-13T19:08:41.186Z,0.80
2019-01-13T19:11:22.824Z,0.50
2019-01-13T19:14:27.489Z,0.80
2019-01-13T19:17:16.226Z,0.50
2019-01-13T19:19:55.472Z,0.70
2019-01-13T19:22:24.863Z,0.80
2019-01-13T19:24:58.564Z,0.70
2019-01-13T19:27:26.750Z,0.60
2019-01-13T19:29:54.922Z,0.60
2019-01-13T19:32:23.106Z,0.60
2019-01-13T19:34:51.246Z,0.40
2019-01-13T19:37:19.451Z,0.60
2019-01-13T19:39:47.615Z,0.57
2019-01-13T19:42:15.776Z,0.53
2019-01-13T19:44:44.177Z,0.50
2019-01-13T19:47:12.328Z,0.60
2019-01-13T19:49:40.808Z,1.17
2019-01-13T19:52:09.381Z,0.70
2019-01-13T19:54:37.551Z,0.90
2019-01-13T19:57:06.883Z,0.70
2019-01-13T19:59:35.038Z,0.60
2019-01-13T20:02:03.201Z,0.70
2019-01-13T20:04:31.470Z,0.70
2019-01-13T20:07:01.621Z,0.80
2019-01-13T20:09:30.816Z,0.80
2019-01-13T20:11:59.002Z,0.80
2019-01-13T20:14:27.448Z,1.20
2019-01-13T20:16:55.652Z,1.40
2019-01-13T20:19:23.805Z,0.83
2019-01-13T20:21:57.820Z,1.50
2019-01-13T20:24:26.007Z,2.40
2019-01-13T20:26:54.470Z,1.63
2019-01-13T20:29:22.659Z,3.50
2019-01-13T20:31:52.868Z,2.50
2019-01-13T20:34:22.085Z,1.40
2019-01-13T20:36:50.248Z,1.10
2019-01-13T20:39:19.462Z,1.43
2019-01-13T20:41:47.658Z,0.90
2019-01-13T20:44:15.791Z,1.30
2019-01-13T20:46:46.253Z,1.30
2019-01-13T20:49:14.317Z,1.10
2019-01-13T20:51:42.503Z,1.20
2019-01-13T20:54:10.638Z,1.30
2019-01-13T20:56:46.003Z,1.30
2019-01-13T21:00:27.975Z,1.20
2019-01-13T21:03:31.858Z,1.10
2019-01-13T21:06:44.235Z,1.13
2019-01-13T21:09:14.386Z,1.30
2019-01-13T21:11:42.701Z,1.43
2019-01-13T21:14:11.085Z,1.00
2019-01-13T21:16:40.591Z,1.03
2019-01-13T21:19:08.754Z,1.40
2019-01-13T21:21:36.865Z,2.97
2019-01-13T21:24:07.345Z,1.30
2019-01-13T21:26:37.562Z,1.57
2019-01-13T21:29:05.721Z,1.70
2019-01-13T21:31:34.143Z,1.50
2019-01-13T21:34:02.577Z,1.40
2019-01-13T21:36:30.808Z,1.50
2019-01-13T21:38:58.968Z,1.60
2019-01-13T21:41:28.169Z,1.50
2019-01-13T21:44:15.731Z,1.80
2019-01-13T21:46:44.891Z,1.77
2019-01-13T21:49:13.530Z,1.37
2019-01-13T21:51:41.879Z,1.23
2019-01-13T21:54:11.027Z,1.37
2019-01-13T21:56:38.172Z,1.30
2019-01-13T21:59:12.396Z,1.20
2019-01-13T22:01:42.489Z,1.30
2019-01-13T22:04:10.698Z,0.77
2019-01-13T22:06:45.415Z,0.90
2019-01-13T22:09:13.561Z,0.70
2019-01-13T22:11:41.726Z,0.80
2019-01-13T22:14:13.085Z,1.73
2019-01-13T22:16:41.251Z,0.80
2019-01-13T22:19:09.456Z,0.73
2019-01-13T22:21:37.606Z,0.63
2019-01-13T22:24:06.917Z,0.80
2019-01-13T22:26:36.238Z,0.70
2019-01-13T22:29:04.435Z,0.67
2019-01-13T22:31:32.550Z,0.50
2019-01-13T22:34:00.969Z,0.60
2019-01-13T22:36:29.399Z,0.67
2019-01-13T22:38:57.581Z,0.50
2019-01-13T22:41:26.678Z,0.87
2019-01-13T22:43:54.841Z,0.70
2019-01-13T22:46:23.017Z,0.60
2019-01-13T22:48:51.198Z,0.70
2019-01-13T22:51:19.362Z,0.60
2019-01-13T22:53:47.585Z,0.63
2019-01-13T22:56:15.758Z,0.70
2019-01-13T22:58:43.927Z,0.77
2019-01-13T23:01:46.006Z,0.60
2019-01-13T23:04:15.661Z,0.50
2019-01-13T23:06:43.838Z,0.60
2019-01-13T23:09:12.689Z,0.80
2019-01-13T23:11:41.826Z,0.63
2019-01-13T23:14:11.027Z,0.70
2019-01-13T23:16:41.179Z,0.63
2019-01-13T23:19:11.394Z,0.70
2019-01-13T23:21:39.568Z,0.70
2019-01-13T23:24:07.723Z,0.60
2019-01-13T23:26:36.308Z,1.10
2019-01-13T23:29:04.528Z,0.80
2019-01-13T23:31:32.667Z,1.27
2019-01-13T23:34:00.843Z,1.00
2019-01-13T23:36:30.037Z,1.30
2019-01-13T23:38:58.198Z,1.10
2019-01-13T23:41:27.396Z,1.00
2019-01-13T23:43:55.595Z,1.30
2019-01-13T23:46:24.008Z,1.10
2019-01-13T23:48:52.564Z,1.37
2019-01-13T23:51:20.730Z,0.90
2019-01-13T23:53:49.932Z,1.10
2019-01-13T23:56:18.148Z,0.93
2019-01-13T23:58:47.287Z,1.30
